Armada, Nebraska
Current Conditions -  °F | °C
As of 5:55 PM on Saturday 25 Oct 2014 (Local Time) from KEAR Reporting Station
Clear Clear  
Wind Chill: 72°   Ceiling: Unl
Heat Index: 72°   Visibility: 10mi
Dew Point: 46°   Wind: 10mph
Humidity: 41%   Direction: 70°ENE
Pressure: 30.02"   Gusts: NA
Location:  40.9599°N, 99.3688°W
Report Text: KEAR 252255Z 07009KT 10SM CLR 22/08 A3002 RMK AO1
Loading
Personal Weather Stations






























Interactive Weather Map
Tropical Storm Tracking
New forecast layout! Learn more

10-Day Weather Forecast

Advertisements
Track Severe Weather on mobile